sensor_id;sensor_type;location;lat;lon;timestamp;P1;durP1;ratioP1;P2;durP2;ratioP2
9761;SDS011;4920;49.594;11.022;2023-12-29T00:00:06;3.13;;;2.23;;
9761;SDS011;4920;49.594;11.022;2023-12-29T00:02:38;2.53;;;2.17;;
9761;SDS011;4920;49.594;11.022;2023-12-29T00:05:07;3.37;;;2.17;;
9761;SDS011;4920;49.594;11.022;2023-12-29T00:07:36;3.37;;;2.40;;
9761;SDS011;4920;49.594;11.022;2023-12-29T00:10:07;2.30;;;2.10;;
9761;SDS011;4920;49.594;11.022;2023-12-29T00:12:36;4.70;;;2.30;;
9761;SDS011;4920;49.594;11.022;2023-12-29T00:15:06;2.97;;;2.10;;
9761;SDS011;4920;49.594;11.022;2023-12-29T00:17:35;3.60;;;2.50;;
9761;SDS011;4920;49.594;11.022;2023-12-29T00:20:08;3.57;;;2.50;;
9761;SDS011;4920;49.594;11.022;2023-12-29T00:22:38;3.60;;;2.47;;
9761;SDS011;4920;49.594;11.022;2023-12-29T00:25:09;2.60;;;2.03;;
9761;SDS011;4920;49.594;11.022;2023-12-29T00:27:38;3.07;;;2.70;;
9761;SDS011;4920;49.594;11.022;2023-12-29T00:30:07;5.23;;;2.50;;
9761;SDS011;4920;49.594;11.022;2023-12-29T00:32:37;2.70;;;2.33;;
9761;SDS011;4920;49.594;11.022;2023-12-29T00:35:06;3.13;;;2.53;;
9761;SDS011;4920;49.594;11.022;2023-12-29T00:37:36;3.43;;;2.63;;
9761;SDS011;4920;49.594;11.022;2023-12-29T00:40:06;2.77;;;2.23;;
9761;SDS011;4920;49.594;11.022;2023-12-29T00:42:37;2.47;;;2.10;;
9761;SDS011;4920;49.594;11.022;2023-12-29T00:45:07;3.67;;;2.27;;
9761;SDS011;4920;49.594;11.022;2023-12-29T00:47:36;3.67;;;2.50;;
9761;SDS011;4920;49.594;11.022;2023-12-29T00:50:05;4.13;;;2.40;;
9761;SDS011;4920;49.594;11.022;2023-12-29T00:52:35;2.40;;;2.10;;
9761;SDS011;4920;49.594;11.022;2023-12-29T00:55:04;2.50;;;2.30;;
9761;SDS011;4920;49.594;11.022;2023-12-29T00:57:33;3.10;;;2.23;;
9761;SDS011;4920;49.594;11.022;2023-12-29T01:00:05;2.77;;;2.07;;
9761;SDS011;4920;49.594;11.022;2023-12-29T01:02:36;4.37;;;2.03;;
9761;SDS011;4920;49.594;11.022;2023-12-29T01:05:05;2.30;;;2.10;;
9761;SDS011;4920;49.594;11.022;2023-12-29T01:07:35;2.70;;;2.20;;
9761;SDS011;4920;49.594;11.022;2023-12-29T01:10:04;2.30;;;2.10;;
9761;SDS011;4920;49.594;11.022;2023-12-29T01:12:34;3.93;;;2.00;;
9761;SDS011;4920;49.594;11.022;2023-12-29T01:15:05;2.90;;;2.10;;
9761;SDS011;4920;49.594;11.022;2023-12-29T01:17:35;2.70;;;1.90;;
9761;SDS011;4920;49.594;11.022;2023-12-29T01:20:04;3.30;;;2.13;;
9761;SDS011;4920;49.594;11.022;2023-12-29T01:22:33;3.60;;;2.13;;
9761;SDS011;4920;49.594;11.022;2023-12-29T01:25:02;3.63;;;2.30;;
9761;SDS011;4920;49.594;11.022;2023-12-29T01:27:33;3.43;;;2.33;;
9761;SDS011;4920;49.594;11.022;2023-12-29T01:30:02;3.03;;;2.30;;
9761;SDS011;4920;49.594;11.022;2023-12-29T01:32:36;3.10;;;2.20;;
9761;SDS011;4920;49.594;11.022;2023-12-29T01:35:06;2.40;;;2.07;;
9761;SDS011;4920;49.594;11.022;2023-12-29T01:37:35;2.70;;;2.30;;
9761;SDS011;4920;49.594;11.022;2023-12-29T01:40:04;3.83;;;2.23;;
9761;SDS011;4920;49.594;11.022;2023-12-29T01:42:33;4.07;;;2.10;;
9761;SDS011;4920;49.594;11.022;2023-12-29T01:45:03;3.17;;;2.00;;
9761;SDS011;4920;49.594;11.022;2023-12-29T01:47:41;3.00;;;2.10;;
9761;SDS011;4920;49.594;11.022;2023-12-29T01:50:10;2.53;;;2.30;;
9761;SDS011;4920;49.594;11.022;2023-12-29T01:52:39;2.47;;;2.23;;
9761;SDS011;4920;49.594;11.022;2023-12-29T01:55:12;3.60;;;2.50;;
9761;SDS011;4920;49.594;11.022;2023-12-29T01:57:45;3.13;;;2.17;;
9761;SDS011;4920;49.594;11.022;2023-12-29T02:00:17;2.90;;;2.20;;
9761;SDS011;4920;49.594;11.022;2023-12-29T02:02:47;2.27;;;1.87;;
9761;SDS011;4920;49.594;11.022;2023-12-29T02:05:17;2.13;;;1.87;;
9761;SDS011;4920;49.594;11.022;2023-12-29T02:07:51;2.43;;;2.00;;
9761;SDS011;4920;49.594;11.022;2023-12-29T02:10:20;2.40;;;2.20;;
9761;SDS011;4920;49.594;11.022;2023-12-29T02:12:51;3.07;;;2.10;;
9761;SDS011;4920;49.594;11.022;2023-12-29T02:15:26;2.23;;;2.03;;
9761;SDS011;4920;49.594;11.022;2023-12-29T02:17:56;2.40;;;2.00;;
9761;SDS011;4920;49.594;11.022;2023-12-29T02:20:31;2.87;;;2.40;;
9761;SDS011;4920;49.594;11.022;2023-12-29T02:23:00;3.00;;;2.20;;
9761;SDS011;4920;49.594;11.022;2023-12-29T02:25:32;4.60;;;2.30;;
9761;SDS011;4920;49.594;11.022;2023-12-29T02:28:02;3.03;;;2.40;;
9761;SDS011;4920;49.594;11.022;2023-12-29T02:30:38;2.20;;;2.00;;
9761;SDS011;4920;49.594;11.022;2023-12-29T02:33:14;3.73;;;1.97;;
9761;SDS011;4920;49.594;11.022;2023-12-29T02:35:48;2.70;;;2.20;;
9761;SDS011;4920;49.594;11.022;2023-12-29T02:38:19;3.93;;;2.23;;
9761;SDS011;4920;49.594;11.022;2023-12-29T02:40:50;2.37;;;2.10;;
9761;SDS011;4920;49.594;11.022;2023-12-29T02:43:19;4.07;;;2.20;;
9761;SDS011;4920;49.594;11.022;2023-12-29T02:45:47;3.40;;;2.33;;
9761;SDS011;4920;49.594;11.022;2023-12-29T02:48:16;2.50;;;2.03;;
9761;SDS011;4920;49.594;11.022;2023-12-29T02:50:46;3.10;;;2.30;;
9761;SDS011;4920;49.594;11.022;2023-12-29T02:53:18;3.37;;;2.10;;
9761;SDS011;4920;49.594;11.022;2023-12-29T02:55:49;2.87;;;2.20;;
9761;SDS011;4920;49.594;11.022;2023-12-29T02:58:18;2.47;;;2.27;;
9761;SDS011;4920;49.594;11.022;2023-12-29T03:00:47;2.97;;;2.30;;
9761;SDS011;4920;49.594;11.022;2023-12-29T03:03:16;3.70;;;2.30;;
9761;SDS011;4920;49.594;11.022;2023-12-29T03:05:45;2.30;;;2.10;;
9761;SDS011;4920;49.594;11.022;2023-12-29T03:08:14;3.17;;;2.30;;
9761;SDS011;4920;49.594;11.022;2023-12-29T03:10:43;5.40;;;2.17;;
9761;SDS011;4920;49.594;11.022;2023-12-29T03:13:13;2.53;;;2.27;;
9761;SDS011;4920;49.594;11.022;2023-12-29T03:15:42;2.20;;;2.00;;
9761;SDS011;4920;49.594;11.022;2023-12-29T03:18:12;3.40;;;2.13;;
9761;SDS011;4920;49.594;11.022;2023-12-29T03:20:41;2.43;;;2.20;;
9761;SDS011;4920;49.594;11.022;2023-12-29T03:23:10;2.70;;;2.23;;
9761;SDS011;4920;49.594;11.022;2023-12-29T03:25:39;3.17;;;2.40;;
9761;SDS011;4920;49.594;11.022;2023-12-29T03:28:08;3.37;;;2.43;;
9761;SDS011;4920;49.594;11.022;2023-12-29T03:30:38;2.67;;;2.37;;
9761;SDS011;4920;49.594;11.022;2023-12-29T03:33:08;2.90;;;2.30;;
9761;SDS011;4920;49.594;11.022;2023-12-29T03:35:37;3.33;;;2.30;;
9761;SDS011;4920;49.594;11.022;2023-12-29T03:38:06;3.00;;;2.50;;
9761;SDS011;4920;49.594;11.022;2023-12-29T03:40:35;2.40;;;2.10;;
9761;SDS011;4920;49.594;11.022;2023-12-29T03:43:04;2.77;;;2.43;;
9761;SDS011;4920;49.594;11.022;2023-12-29T03:45:34;2.73;;;2.30;;
9761;SDS011;4920;49.594;11.022;2023-12-29T03:48:05;4.53;;;2.57;;
9761;SDS011;4920;49.594;11.022;2023-12-29T03:50:36;2.87;;;2.40;;
9761;SDS011;4920;49.594;11.022;2023-12-29T03:53:04;3.40;;;2.30;;
9761;SDS011;4920;49.594;11.022;2023-12-29T03:55:34;2.97;;;2.67;;
9761;SDS011;4920;49.594;11.022;2023-12-29T03:58:04;3.40;;;2.60;;
9761;SDS011;4920;49.594;11.022;2023-12-29T04:00:33;3.60;;;2.50;;
9761;SDS011;4920;49.594;11.022;2023-12-29T04:03:05;4.97;;;2.23;;
9761;SDS011;4920;49.594;11.022;2023-12-29T04:05:33;3.30;;;2.53;;
9761;SDS011;4920;49.594;11.022;2023-12-29T04:08:04;3.20;;;2.63;;
9761;SDS011;4920;49.594;11.022;2023-12-29T04:10:33;4.13;;;3.20;;
9761;SDS011;4920;49.594;11.022;2023-12-29T04:13:02;5.77;;;3.33;;
9761;SDS011;4920;49.594;11.022;2023-12-29T04:15:31;3.20;;;2.80;;
9761;SDS011;4920;49.594;11.022;2023-12-29T04:18:00;3.50;;;3.07;;
9761;SDS011;4920;49.594;11.022;2023-12-29T04:20:31;4.70;;;3.03;;
9761;SDS011;4920;49.594;11.022;2023-12-29T04:23:00;4.40;;;3.00;;
9761;SDS011;4920;49.594;11.022;2023-12-29T04:25:29;5.00;;;2.90;;
9761;SDS011;4920;49.594;11.022;2023-12-29T04:27:58;4.20;;;3.10;;
9761;SDS011;4920;49.594;11.022;2023-12-29T04:30:27;4.07;;;2.90;;
9761;SDS011;4920;49.594;11.022;2023-12-29T04:32:56;3.93;;;2.70;;
9761;SDS011;4920;49.594;11.022;2023-12-29T04:35:25;3.23;;;2.80;;
9761;SDS011;4920;49.594;11.022;2023-12-29T04:37:56;4.10;;;2.93;;
9761;SDS011;4920;49.594;11.022;2023-12-29T04:40:25;3.30;;;2.70;;
9761;SDS011;4920;49.594;11.022;2023-12-29T04:42:54;4.87;;;2.73;;
9761;SDS011;4920;49.594;11.022;2023-12-29T04:45:23;3.13;;;2.50;;
9761;SDS011;4920;49.594;11.022;2023-12-29T04:47:52;5.53;;;2.93;;
9761;SDS011;4920;49.594;11.022;2023-12-29T04:50:21;4.23;;;3.07;;
9761;SDS011;4920;49.594;11.022;2023-12-29T04:52:50;3.70;;;3.00;;
9761;SDS011;4920;49.594;11.022;2023-12-29T04:55:20;5.37;;;3.13;;
9761;SDS011;4920;49.594;11.022;2023-12-29T04:57:49;3.80;;;3.00;;
9761;SDS011;4920;49.594;11.022;2023-12-29T05:00:18;3.30;;;2.73;;
9761;SDS011;4920;49.594;11.022;2023-12-29T05:02:47;3.53;;;2.63;;
9761;SDS011;4920;49.594;11.022;2023-12-29T05:05:16;3.07;;;2.77;;
9761;SDS011;4920;49.594;11.022;2023-12-29T05:07:45;3.13;;;2.67;;
9761;SDS011;4920;49.594;11.022;2023-12-29T05:10:14;3.00;;;2.70;;
9761;SDS011;4920;49.594;11.022;2023-12-29T05:12:44;3.27;;;2.67;;
9761;SDS011;4920;49.594;11.022;2023-12-29T05:15:13;3.47;;;2.70;;
9761;SDS011;4920;49.594;11.022;2023-12-29T05:17:42;4.70;;;3.03;;
9761;SDS011;4920;49.594;11.022;2023-12-29T05:20:11;2.90;;;2.50;;
9761;SDS011;4920;49.594;11.022;2023-12-29T05:22:40;4.10;;;2.80;;
9761;SDS011;4920;49.594;11.022;2023-12-29T05:25:09;2.57;;;2.30;;
9761;SDS011;4920;49.594;11.022;2023-12-29T05:27:38;3.93;;;3.00;;
9761;SDS011;4920;49.594;11.022;2023-12-29T05:30:09;3.13;;;2.70;;
9761;SDS011;4920;49.594;11.022;2023-12-29T05:32:39;3.93;;;2.57;;
9761;SDS011;4920;49.594;11.022;2023-12-29T05:35:07;3.60;;;2.80;;
9761;SDS011;4920;49.594;11.022;2023-12-29T05:37:37;3.83;;;2.70;;
9761;SDS011;4920;49.594;11.022;2023-12-29T05:40:06;3.47;;;2.97;;
9761;SDS011;4920;49.594;11.022;2023-12-29T05:42:36;4.83;;;3.10;;
9761;SDS011;4920;49.594;11.022;2023-12-29T05:45:05;3.67;;;3.00;;
9761;SDS011;4920;49.594;11.022;2023-12-29T05:47:35;5.40;;;3.20;;
9761;SDS011;4920;49.594;11.022;2023-12-29T05:50:05;5.27;;;2.90;;
9761;SDS011;4920;49.594;11.022;2023-12-29T05:52:34;3.30;;;2.83;;
9761;SDS011;4920;49.594;11.022;2023-12-29T05:55:03;4.20;;;3.30;;
9761;SDS011;4920;49.594;11.022;2023-12-29T05:57:32;3.40;;;3.10;;
9761;SDS011;4920;49.594;11.022;2023-12-29T06:00:01;4.03;;;3.10;;
9761;SDS011;4920;49.594;11.022;2023-12-29T06:02:39;3.53;;;3.10;;
9761;SDS011;4920;49.594;11.022;2023-12-29T06:05:10;4.77;;;3.10;;
9761;SDS011;4920;49.594;11.022;2023-12-29T06:07:39;3.47;;;3.03;;
9761;SDS011;4920;49.594;11.022;2023-12-29T06:10:08;3.73;;;3.10;;
9761;SDS011;4920;49.594;11.022;2023-12-29T06:12:38;3.30;;;3.00;;
9761;SDS011;4920;49.594;11.022;2023-12-29T06:15:07;3.57;;;3.10;;
9761;SDS011;4920;49.594;11.022;2023-12-29T06:17:41;4.03;;;3.10;;
9761;SDS011;4920;49.594;11.022;2023-12-29T06:20:11;3.43;;;3.10;;
9761;SDS011;4920;49.594;11.022;2023-12-29T06:22:40;3.97;;;3.00;;
9761;SDS011;4920;49.594;11.022;2023-12-29T06:25:09;4.07;;;3.30;;
9761;SDS011;4920;49.594;11.022;2023-12-29T06:27:39;4.67;;;3.43;;
9761;SDS011;4920;49.594;11.022;2023-12-29T06:30:08;3.67;;;3.30;;
9761;SDS011;4920;49.594;11.022;2023-12-29T06:32:39;5.00;;;3.60;;
9761;SDS011;4920;49.594;11.022;2023-12-29T06:35:10;4.17;;;3.63;;
9761;SDS011;4920;49.594;11.022;2023-12-29T06:37:39;4.90;;;3.60;;
9761;SDS011;4920;49.594;11.022;2023-12-29T06:40:09;4.63;;;3.43;;
9761;SDS011;4920;49.594;11.022;2023-12-29T06:42:38;6.67;;;3.70;;
9761;SDS011;4920;49.594;11.022;2023-12-29T06:45:07;5.00;;;3.73;;
9761;SDS011;4920;49.594;11.022;2023-12-29T06:47:36;4.27;;;3.17;;
9761;SDS011;4920;49.594;11.022;2023-12-29T06:50:06;6.70;;;3.47;;
9761;SDS011;4920;49.594;11.022;2023-12-29T06:52:39;4.17;;;3.63;;
9761;SDS011;4920;49.594;11.022;2023-12-29T06:55:10;5.83;;;3.40;;
9761;SDS011;4920;49.594;11.022;2023-12-29T06:57:39;4.30;;;3.27;;
9761;SDS011;4920;49.594;11.022;2023-12-29T07:00:08;3.90;;;3.27;;
9761;SDS011;4920;49.594;11.022;2023-12-29T07:02:38;4.93;;;3.60;;
9761;SDS011;4920;49.594;11.022;2023-12-29T07:05:09;4.53;;;3.27;;
9761;SDS011;4920;49.594;11.022;2023-12-29T07:07:38;3.87;;;3.20;;
9761;SDS011;4920;49.594;11.022;2023-12-29T07:10:07;4.87;;;3.37;;
9761;SDS011;4920;49.594;11.022;2023-12-29T07:12:36;4.00;;;3.37;;
9761;SDS011;4920;49.594;11.022;2023-12-29T07:15:05;4.20;;;3.20;;
9761;SDS011;4920;49.594;11.022;2023-12-29T07:17:35;5.53;;;3.20;;
9761;SDS011;4920;49.594;11.022;2023-12-29T07:20:05;3.80;;;3.00;;
9761;SDS011;4920;49.594;11.022;2023-12-29T07:22:37;3.93;;;3.33;;
9761;SDS011;4920;49.594;11.022;2023-12-29T07:25:06;4.13;;;3.40;;
9761;SDS011;4920;49.594;11.022;2023-12-29T07:27:35;3.50;;;3.20;;
9761;SDS011;4920;49.594;11.022;2023-12-29T07:30:05;4.57;;;3.13;;
9761;SDS011;4920;49.594;11.022;2023-12-29T07:32:35;3.40;;;3.07;;
9761;SDS011;4920;49.594;11.022;2023-12-29T07:35:04;4.20;;;3.63;;
9761;SDS011;4920;49.594;11.022;2023-12-29T07:37:33;3.97;;;3.30;;
9761;SDS011;4920;49.594;11.022;2023-12-29T07:40:05;4.80;;;3.10;;
9761;SDS011;4920;49.594;11.022;2023-12-29T07:42:36;5.53;;;3.37;;
9761;SDS011;4920;49.594;11.022;2023-12-29T07:45:06;4.23;;;3.10;;
9761;SDS011;4920;49.594;11.022;2023-12-29T07:47:36;6.97;;;4.40;;
9761;SDS011;4920;49.594;11.022;2023-12-29T07:50:04;4.20;;;3.80;;
9761;SDS011;4920;49.594;11.022;2023-12-29T07:52:33;3.97;;;3.27;;
9761;SDS011;4920;49.594;11.022;2023-12-29T07:55:04;5.10;;;3.70;;
9761;SDS011;4920;49.594;11.022;2023-12-29T07:57:33;5.93;;;3.67;;
9761;SDS011;4920;49.594;11.022;2023-12-29T08:00:03;5.27;;;3.67;;
9761;SDS011;4920;49.594;11.022;2023-12-29T08:02:37;4.10;;;3.50;;
9761;SDS011;4920;49.594;11.022;2023-12-29T08:05:06;4.53;;;3.60;;
9761;SDS011;4920;49.594;11.022;2023-12-29T08:07:36;4.53;;;3.80;;
9761;SDS011;4920;49.594;11.022;2023-12-29T08:10:07;5.10;;;3.57;;
9761;SDS011;4920;49.594;11.022;2023-12-29T08:12:37;4.87;;;3.63;;
9761;SDS011;4920;49.594;11.022;2023-12-29T08:15:07;3.47;;;3.03;;
9761;SDS011;4920;49.594;11.022;2023-12-29T08:17:36;3.90;;;3.50;;
9761;SDS011;4920;49.594;11.022;2023-12-29T08:20:06;3.80;;;3.20;;
9761;SDS011;4920;49.594;11.022;2023-12-29T08:22:36;3.33;;;3.00;;
9761;SDS011;4920;49.594;11.022;2023-12-29T08:25:12;3.77;;;3.07;;
9761;SDS011;4920;49.594;11.022;2023-12-29T08:27:41;5.63;;;3.53;;
9761;SDS011;4920;49.594;11.022;2023-12-29T08:30:10;5.30;;;3.77;;
9761;SDS011;4920;49.594;11.022;2023-12-29T08:32:40;3.70;;;2.70;;
9761;SDS011;4920;49.594;11.022;2023-12-29T08:35:10;3.00;;;2.70;;
9761;SDS011;4920;49.594;11.022;2023-12-29T08:37:39;4.73;;;1.90;;
9761;SDS011;4920;49.594;11.022;2023-12-29T08:40:09;2.37;;;1.83;;
9761;SDS011;4920;49.594;11.022;2023-12-29T08:42:40;2.20;;;1.80;;
9761;SDS011;4920;49.594;11.022;2023-12-29T08:45:09;2.37;;;1.70;;
9761;SDS011;4920;49.594;11.022;2023-12-29T08:47:38;1.97;;;1.43;;
9761;SDS011;4920;49.594;11.022;2023-12-29T08:50:07;2.37;;;1.30;;
9761;SDS011;4920;49.594;11.022;2023-12-29T08:52:36;2.00;;;1.30;;
9761;SDS011;4920;49.594;11.022;2023-12-29T08:55:06;1.50;;;1.33;;
9761;SDS011;4920;49.594;11.022;2023-12-29T08:57:37;1.90;;;1.40;;
9761;SDS011;4920;49.594;11.022;2023-12-29T09:00:08;2.10;;;1.30;;
9761;SDS011;4920;49.594;11.022;2023-12-29T09:02:37;2.20;;;1.40;;
9761;SDS011;4920;49.594;11.022;2023-12-29T09:05:07;1.80;;;1.30;;
9761;SDS011;4920;49.594;11.022;2023-12-29T09:07:36;1.90;;;1.17;;
9761;SDS011;4920;49.594;11.022;2023-12-29T09:10:05;1.60;;;1.30;;
9761;SDS011;4920;49.594;11.022;2023-12-29T09:12:37;1.60;;;1.30;;
9761;SDS011;4920;49.594;11.022;2023-12-29T09:15:08;4.63;;;1.30;;
9761;SDS011;4920;49.594;11.022;2023-12-29T09:17:38;2.33;;;1.13;;
9761;SDS011;4920;49.594;11.022;2023-12-29T09:20:08;1.30;;;1.10;;
9761;SDS011;4920;49.594;11.022;2023-12-29T09:22:38;1.43;;;1.30;;
9761;SDS011;4920;49.594;11.022;2023-12-29T09:25:07;1.40;;;1.30;;
9761;SDS011;4920;49.594;11.022;2023-12-29T09:27:36;2.17;;;1.27;;
9761;SDS011;4920;49.594;11.022;2023-12-29T09:30:06;1.40;;;1.20;;
9761;SDS011;4920;49.594;11.022;2023-12-29T09:32:38;1.40;;;1.30;;
9761;SDS011;4920;49.594;11.022;2023-12-29T09:35:07;2.47;;;1.30;;
9761;SDS011;4920;49.594;11.022;2023-12-29T09:37:36;1.93;;;1.30;;
9761;SDS011;4920;49.594;11.022;2023-12-29T09:40:05;1.33;;;1.23;;
9761;SDS011;4920;49.594;11.022;2023-12-29T09:42:36;1.40;;;1.30;;
9761;SDS011;4920;49.594;11.022;2023-12-29T09:45:09;1.53;;;1.40;;
9761;SDS011;4920;49.594;11.022;2023-12-29T09:47:40;3.40;;;1.30;;
9761;SDS011;4920;49.594;11.022;2023-12-29T09:50:12;3.30;;;1.50;;
9761;SDS011;4920;49.594;11.022;2023-12-29T09:52:42;1.70;;;1.27;;
9761;SDS011;4920;49.594;11.022;2023-12-29T09:55:11;2.43;;;1.50;;
9761;SDS011;4920;49.594;11.022;2023-12-29T09:57:41;2.57;;;1.40;;
9761;SDS011;4920;49.594;11.022;2023-12-29T10:00:12;1.50;;;1.40;;
9761;SDS011;4920;49.594;11.022;2023-12-29T10:02:44;3.00;;;1.40;;
9761;SDS011;4920;49.594;11.022;2023-12-29T10:05:14;4.40;;;1.60;;
9761;SDS011;4920;49.594;11.022;2023-12-29T10:07:44;1.70;;;1.30;;
9761;SDS011;4920;49.594;11.022;2023-12-29T10:10:15;2.57;;;1.40;;
9761;SDS011;4920;49.594;11.022;2023-12-29T10:12:47;2.20;;;1.47;;
9761;SDS011;4920;49.594;11.022;2023-12-29T10:15:19;2.87;;;1.37;;
9761;SDS011;4920;49.594;11.022;2023-12-29T10:17:52;2.80;;;1.43;;
9761;SDS011;4920;49.594;11.022;2023-12-29T10:20:35;1.93;;;1.43;;
9761;SDS011;4920;49.594;11.022;2023-12-29T10:23:14;1.90;;;1.40;;
9761;SDS011;4920;49.594;11.022;2023-12-29T10:25:45;1.70;;;1.33;;
9761;SDS011;4920;49.594;11.022;2023-12-29T10:28:16;2.60;;;1.50;;
9761;SDS011;4920;49.594;11.022;2023-12-29T10:30:47;1.97;;;1.40;;
9761;SDS011;4920;49.594;11.022;2023-12-29T10:33:19;2.20;;;1.27;;
9761;SDS011;4920;49.594;11.022;2023-12-29T10:35:57;1.87;;;1.50;;
9761;SDS011;4920;49.594;11.022;2023-12-29T10:38:30;2.17;;;1.50;;
9761;SDS011;4920;49.594;11.022;2023-12-29T10:41:12;1.53;;;1.40;;
9761;SDS011;4920;49.594;11.022;2023-12-29T10:43:42;2.57;;;1.43;;
9761;SDS011;4920;49.594;11.022;2023-12-29T10:46:15;1.67;;;1.40;;
9761;SDS011;4920;49.594;11.022;2023-12-29T10:48:48;1.90;;;1.50;;
9761;SDS011;4920;49.594;11.022;2023-12-29T10:51:17;1.63;;;1.50;;
9761;SDS011;4920;49.594;11.022;2023-12-29T10:53:56;1.53;;;1.40;;
9761;SDS011;4920;49.594;11.022;2023-12-29T10:56:25;1.63;;;1.40;;
9761;SDS011;4920;49.594;11.022;2023-12-29T10:58:59;3.37;;;1.60;;
9761;SDS011;4920;49.594;11.022;2023-12-29T11:01:31;3.37;;;1.63;;
9761;SDS011;4920;49.594;11.022;2023-12-29T11:04:03;1.70;;;1.50;;
9761;SDS011;4920;49.594;11.022;2023-12-29T11:06:39;2.70;;;1.60;;
9761;SDS011;4920;49.594;11.022;2023-12-29T11:09:11;2.23;;;1.50;;
9761;SDS011;4920;49.594;11.022;2023-12-29T11:11:40;3.07;;;1.40;;
9761;SDS011;4920;49.594;11.022;2023-12-29T11:14:10;1.60;;;1.50;;
9761;SDS011;4920;49.594;11.022;2023-12-29T11:16:42;2.63;;;1.50;;
9761;SDS011;4920;49.594;11.022;2023-12-29T11:19:12;3.37;;;1.50;;
9761;SDS011;4920;49.594;11.022;2023-12-29T11:21:43;1.80;;;1.50;;
9761;SDS011;4920;49.594;11.022;2023-12-29T11:24:13;2.37;;;1.80;;
9761;SDS011;4920;49.594;11.022;2023-12-29T11:26:51;1.50;;;1.40;;
9761;SDS011;4920;49.594;11.022;2023-12-29T11:29:21;1.67;;;1.53;;
9761;SDS011;4920;49.594;11.022;2023-12-29T11:31:52;3.63;;;1.80;;
9761;SDS011;4920;49.594;11.022;2023-12-29T11:34:25;4.77;;;1.53;;
9761;SDS011;4920;49.594;11.022;2023-12-29T11:37:15;1.40;;;1.30;;
9761;SDS011;4920;49.594;11.022;2023-12-29T11:39:50;2.47;;;1.57;;
9761;SDS011;4920;49.594;11.022;2023-12-29T11:42:27;1.80;;;1.60;;
9761;SDS011;4920;49.594;11.022;2023-12-29T11:45:01;1.92;;;1.52;;
9761;SDS011;4920;49.594;11.022;2023-12-29T11:47:55;2.00;;;1.40;;
9761;SDS011;4920;49.594;11.022;2023-12-29T11:50:28;3.75;;;1.45;;
9761;SDS011;4920;49.594;11.022;2023-12-29T11:52:59;3.03;;;1.70;;
9761;SDS011;4920;49.594;11.022;2023-12-29T11:55:29;2.13;;;1.83;;
9761;SDS011;4920;49.594;11.022;2023-12-29T11:57:59;3.97;;;1.50;;
9761;SDS011;4920;49.594;11.022;2023-12-29T12:00:42;3.65;;;1.90;;
9761;SDS011;4920;49.594;11.022;2023-12-29T12:03:15;1.38;;;1.27;;
9761;SDS011;4920;49.594;11.022;2023-12-29T12:05:46;4.07;;;1.00;;
9761;SDS011;4920;49.594;11.022;2023-12-29T12:08:26;2.78;;;1.35;;
9761;SDS011;4920;49.594;11.022;2023-12-29T12:10:57;1.48;;;1.25;;
9761;SDS011;4920;49.594;11.022;2023-12-29T12:13:47;1.70;;;1.42;;
9761;SDS011;4920;49.594;11.022;2023-12-29T12:19:19;3.47;;;1.33;;
9761;SDS011;4920;49.594;11.022;2023-12-29T12:21:51;2.60;;;1.20;;
9761;SDS011;4920;49.594;11.022;2023-12-29T12:24:23;2.55;;;1.10;;
9761;SDS011;4920;49.594;11.022;2023-12-29T12:26:52;1.77;;;1.20;;
9761;SDS011;4920;49.594;11.022;2023-12-29T12:29:23;1.55;;;1.05;;
9761;SDS011;4920;49.594;11.022;2023-12-29T12:31:53;1.10;;;1.00;;
9761;SDS011;4920;49.594;11.022;2023-12-29T12:34:25;2.55;;;1.90;;
9761;SDS011;4920;49.594;11.022;2023-12-29T12:36:55;1.88;;;1.10;;
9761;SDS011;4920;49.594;11.022;2023-12-29T12:39:37;1.92;;;1.13;;
9761;SDS011;4920;49.594;11.022;2023-12-29T12:42:07;1.80;;;1.08;;
9761;SDS011;4920;49.594;11.022;2023-12-29T12:44:37;2.22;;;1.00;;
9761;SDS011;4920;49.594;11.022;2023-12-29T12:47:08;1.15;;;1.05;;
9761;SDS011;4920;49.594;11.022;2023-12-29T12:49:46;1.90;;;0.90;;
9761;SDS011;4920;49.594;11.022;2023-12-29T12:52:16;2.03;;;0.98;;
9761;SDS011;4920;49.594;11.022;2023-12-29T12:54:45;3.53;;;1.20;;
9761;SDS011;4920;49.594;11.022;2023-12-29T12:57:19;1.83;;;1.00;;
9761;SDS011;4920;49.594;11.022;2023-12-29T12:59:49;1.20;;;1.00;;
9761;SDS011;4920;49.594;11.022;2023-12-29T13:02:21;1.27;;;1.17;;
9761;SDS011;4920;49.594;11.022;2023-12-29T13:04:53;2.55;;;1.02;;
9761;SDS011;4920;49.594;11.022;2023-12-29T13:07:22;1.13;;;0.93;;
9761;SDS011;4920;49.594;11.022;2023-12-29T13:09:52;1.48;;;1.10;;
9761;SDS011;4920;49.594;11.022;2023-12-29T13:12:21;3.25;;;1.17;;
9761;SDS011;4920;49.594;11.022;2023-12-29T13:14:50;2.38;;;1.02;;
9761;SDS011;4920;49.594;11.022;2023-12-29T13:17:20;1.43;;;0.90;;
9761;SDS011;4920;49.594;11.022;2023-12-29T13:19:57;1.40;;;0.90;;
9761;SDS011;4920;49.594;11.022;2023-12-29T13:22:26;1.47;;;1.00;;
9761;SDS011;4920;49.594;11.022;2023-12-29T13:24:55;1.47;;;1.20;;
9761;SDS011;4920;49.594;11.022;2023-12-29T13:27:24;2.00;;;1.10;;
9761;SDS011;4920;49.594;11.022;2023-12-29T13:29:54;2.50;;;1.10;;
9761;SDS011;4920;49.594;11.022;2023-12-29T13:32:24;2.97;;;1.00;;
9761;SDS011;4920;49.594;11.022;2023-12-29T13:35:01;2.03;;;1.10;;
9761;SDS011;4920;49.594;11.022;2023-12-29T13:37:33;2.03;;;1.00;;
9761;SDS011;4920;49.594;11.022;2023-12-29T13:40:09;1.07;;;0.97;;
9761;SDS011;4920;49.594;11.022;2023-12-29T13:42:42;1.90;;;1.10;;
9761;SDS011;4920;49.594;11.022;2023-12-29T13:45:14;2.77;;;1.20;;
9761;SDS011;4920;49.594;11.022;2023-12-29T13:47:46;3.23;;;1.20;;
9761;SDS011;4920;49.594;11.022;2023-12-29T13:50:17;4.40;;;1.20;;
9761;SDS011;4920;49.594;11.022;2023-12-29T13:52:46;2.00;;;1.13;;
9761;SDS011;4920;49.594;11.022;2023-12-29T13:55:20;4.50;;;1.10;;
9761;SDS011;4920;49.594;11.022;2023-12-29T13:57:50;1.93;;;1.20;;
9761;SDS011;4920;49.594;11.022;2023-12-29T14:00:20;3.03;;;1.10;;
9761;SDS011;4920;49.594;11.022;2023-12-29T14:02:57;1.93;;;1.20;;
9761;SDS011;4920;49.594;11.022;2023-12-29T14:05:35;4.07;;;1.10;;
9761;SDS011;4920;49.594;11.022;2023-12-29T14:08:08;2.20;;;1.10;;
9761;SDS011;4920;49.594;11.022;2023-12-29T14:10:45;1.60;;;1.10;;
9761;SDS011;4920;49.594;11.022;2023-12-29T14:13:15;1.30;;;1.10;;
9761;SDS011;4920;49.594;11.022;2023-12-29T14:15:45;1.50;;;1.13;;
9761;SDS011;4920;49.594;11.022;2023-12-29T14:18:25;2.07;;;1.20;;
9761;SDS011;4920;49.594;11.022;2023-12-29T14:24:08;1.50;;;1.10;;
9761;SDS011;4920;49.594;11.022;2023-12-29T14:26:38;1.60;;;1.10;;
9761;SDS011;4920;49.594;11.022;2023-12-29T14:29:11;2.40;;;1.17;;
9761;SDS011;4920;49.594;11.022;2023-12-29T14:31:41;1.20;;;1.10;;
9761;SDS011;4920;49.594;11.022;2023-12-29T14:34:11;2.23;;;1.13;;
9761;SDS011;4920;49.594;11.022;2023-12-29T14:36:45;1.63;;;1.20;;
9761;SDS011;4920;49.594;11.022;2023-12-29T14:39:14;2.67;;;1.20;;
9761;SDS011;4920;49.594;11.022;2023-12-29T14:41:44;1.10;;;1.00;;
9761;SDS011;4920;49.594;11.022;2023-12-29T14:44:13;1.57;;;1.20;;
9761;SDS011;4920;49.594;11.022;2023-12-29T14:46:42;2.03;;;1.20;;
9761;SDS011;4920;49.594;11.022;2023-12-29T14:49:11;2.47;;;1.30;;
9761;SDS011;4920;49.594;11.022;2023-12-29T14:51:40;1.43;;;1.07;;
9761;SDS011;4920;49.594;11.022;2023-12-29T14:54:11;2.53;;;1.03;;
9761;SDS011;4920;49.594;11.022;2023-12-29T14:56:40;1.57;;;1.13;;
9761;SDS011;4920;49.594;11.022;2023-12-29T14:59:09;1.63;;;1.23;;
9761;SDS011;4920;49.594;11.022;2023-12-29T15:01:39;1.33;;;1.20;;
9761;SDS011;4920;49.594;11.022;2023-12-29T15:04:08;2.20;;;1.10;;
9761;SDS011;4920;49.594;11.022;2023-12-29T15:06:39;1.40;;;1.17;;
9761;SDS011;4920;49.594;11.022;2023-12-29T15:09:10;1.57;;;1.23;;
9761;SDS011;4920;49.594;11.022;2023-12-29T15:11:40;1.73;;;1.23;;
9761;SDS011;4920;49.594;11.022;2023-12-29T15:14:09;1.43;;;1.20;;
9761;SDS011;4920;49.594;11.022;2023-12-29T15:16:38;1.70;;;1.40;;
9761;SDS011;4920;49.594;11.022;2023-12-29T15:19:07;1.40;;;1.30;;
9761;SDS011;4920;49.594;11.022;2023-12-29T15:21:36;4.93;;;1.40;;
9761;SDS011;4920;49.594;11.022;2023-12-29T15:24:05;2.93;;;1.27;;
9761;SDS011;4920;49.594;11.022;2023-12-29T15:26:36;3.67;;;1.40;;